Date,TemperatureHighF,TemperatureAvgF,TemperatureLowF,DewpointHighF,DewpointAvgF,DewpointLowF,HumidityHigh,HumidityAvg,HumidityLow,PressureMaxIn,PressureMinIn,WindSpeedMaxMPH,WindSpeedAvgMPH,GustSpeedMaxMPH,PrecipitationSumIn
2014-1-1,49,42,38,48,40,36,99,95,83,29.29,28.69,18,5,18,0.58
2014-1-2,47,43,41,43,40,36,99,90,77,29.14,28.72,20,6,20,0.13
2014-1-3,47,44,40,44,39,35,99,83,71,29.01,28.74,35,13,35,0.46
2014-1-4,44,39,35,39,36,33,99,90,75,29.24,29.01,22,4,22,0.09
2014-1-5,47,39,30,46,37,30,99,94,83,29.35,28.83,28,6,28,0.28
2014-1-6,49,46,41,45,43,40,98,88,78,28.94,28.79,37,12,37,0.91
2014-1-7,50,46,45,43,41,39,91,82,72,29.38,28.94,24,9,25,0.06
2014-1-8,49,43,36,43,40,35,99,88,74,29.73,29.38,23,6,23,0.04
2014-1-9,43,40,35,41,38,35,99,95,85,29.67,29.49,14,4,14,0.01
2014-1-10,48,41,32,44,39,32,99,91,81,29.75,29.64,17,4,17,0.14
2014-1-11,41,36,29,37,34,28,99,92,80,30.12,29.75,18,4,18,0.01
2014-1-12,38,34,28,38,32,27,99,93,77,30.12,29.44,17,4,17,0.01
2014-1-13,49,40,35,42,37,33,99,89,64,29.51,29.44,13,3,13,0.07
2014-1-14,42,36,34,41,36,34,99,99,96,29.56,29.40,13,2,13,0.11
2014-1-15,50,42,36,49,42,36,99,99,95,29.40,29.13,13,3,13,0.37
2014-1-16,45,41,38,43,40,38,99,98,90,29.16,29.03,8,2,8,0.05
2014-1-17,43,41,38,43,41,37,99,99,99,29.21,28.98,8,2,8,0.02
2014-1-18,45,41,36,44,40,36,99,99,97,29.23,29.15,11,4,11,0.24
2014-1-19,49,41,32,44,39,32,99,95,79,29.46,29.18,14,3,14,0.25
2014-1-20,51,41,36,42,38,35,99,89,66,29.81,29.45,10,2,10,0.01
2014-1-21,42,40,38,40,38,36,99,93,80,29.79,29.48,16,4,16,0.18
2014-1-22,50,43,40,44,42,39,99,95,77,29.68,29.47,14,4,14,0.05
2014-1-23,43,38,28,40,34,27,98,87,75,29.84,29.53,23,6,23,0.08
2014-1-24,48,39,28,46,37,27,99,95,85,29.84,29.60,19,4,19,0.26
2014-1-25,48,42,36,44,39,35,99,90,80,29.73,29.43,24,7,24,0.33
2014-1-26,44,38,36,41,35,31,99,86,72,29.73,28.90,25,7,25,0.46
2014-1-27,46,41,38,40,38,32,99,89,77,28.93,28.84,23,4,23,0.06
2014-1-28,42,40,38,42,40,38,99,98,94,29.22,28.91,11,3,11,0.17
2014-1-29,42,40,36,42,39,34,99,97,90,29.73,29.22,11,4,11,0.21
2014-1-30,38,36,34,34,33,32,96,91,84,29.73,29.65,8,2,8,0.00
2014-1-31,39,37,34,38,35,32,99,95,82,29.67,28.78,27,5,27,0.37
2014-2-1,43,39,34,41,36,28,99,89,69,28.90,28.51,27,10,27,1.10
2014-2-2,49,43,40,41,37,34,96,81,63,29.54,28.89,26,9,26,0.05
2014-2-3,46,43,40,39,37,35,91,80,69,29.53,29.36,24,7,24,0.00
2014-2-4,47,40,36,41,36,34,99,89,71,29.35,29.02,14,4,14,0.13
2014-2-5,42,40,37,41,39,37,99,98,90,29.02,28.58,18,5,18,0.87
2014-2-6,48,41,30,42,38,30,99,90,76,29.09,28.75,17,4,17,0.00
2014-2-7,49,36,30,39,34,29,99,92,66,29.15,28.83,14,3,14,0.02
2014-2-8,42,39,33,42,38,33,99,95,85,28.83,28.22,21,6,21,0.94
2014-2-9,46,41,38,42,38,34,99,87,76,28.94,28.29,35,9,35,0.24
2014-2-10,47,39,31,38,35,30,99,85,72,29.33,28.94,18,5,23,0.01
2014-2-11,45,36,31,36,32,25,99,84,57,29.32,28.98,24,6,24,0.05
2014-2-12,41,36,34,39,33,27,99,87,72,29.19,28.26,32,8,32,0.71
2014-2-13,42,39,36,38,34,32,99,85,73,29.13,28.48,30,11,30,0.13
2014-2-14,42,38,33,40,36,33,99,93,81,29.24,28.39,19,5,19,0.61
2014-2-15,46,39,36,40,37,36,99,92,70,29.31,28.37,18,6,18,0.39
2014-2-16,48,38,31,36,32,27,94,78,55,29.60,29.31,21,5,21,0.00
2014-2-17,45,40,34,43,38,33,99,94,85,29.61,29.58,8,3,8,0.04
2014-2-18,50,44,41,47,43,41,99,98,84,29.64,29.58,7,1,7,0.02
2014-2-19,48,44,33,47,43,-17,99,95,10,29.75,29.43,10,2,10,0.12
2014-2-20,51,45,38,49,42,33,99,89,76,29.43,29.02,43,10,43,0.18
2014-2-21,48,41,37,39,36,32,90,81,71,29.26,29.13,29,9,29,0.06
2014-2-22,50,45,41,44,40,-6,97,83,10,29.51,29.21,31,10,31,0.08
2014-2-23,51,49,44,48,45,41,96,85,77,29.43,29.24,56,15,56,0.37
2014-2-24,55,42,33,44,40,-10,99,91,60,29.45,29.25,17,3,17,0.58
2014-2-25,50,44,42,42,39,36,96,83,64,29.39,29.13,31,10,31,0.31
2014-2-26,52,44,42,45,38,35,96,82,72,29.67,29.39,22,7,22,0.08
2014-2-27,48,40,32,41,37,31,98,87,67,29.55,29.35,22,6,22,0.21
2014-2-28,50,37,26,43,33,26,99,89,60,29.58,29.46,16,2,16,0.01
2014-3-1,53,38,27,45,33,27,99,87,50,29.57,29.24,16,2,16,0.22
2014-3-2,48,40,34,44,38,33,99,92,70,29.25,28.79,18,3,18,0.19
2014-3-3,52,40,32,42,35,30,99,85,47,29.32,28.80,11,2,11,0.01
2014-3-4,53,42,30,40,36,30,99,82,57,29.78,29.31,21,6,21,0.00
2014-3-5,50,44,38,44,40,35,95,84,71,29.96,29.77,22,6,22,0.00
2014-3-6,59,51,47,50,47,43,94,86,68,29.98,29.76,23,7,27,0.06
2014-3-7,51,44,33,49,37,26,98,79,52,30.27,29.67,29,8,29,0.28
2014-3-8,55,46,36,46,39,30,85,77,65,30.25,29.83,38,11,38,0.00
2014-3-9,51,47,39,48,45,38,99,92,81,30.17,29.88,18,5,18,0.30
2014-3-10,58,42,30,43,37,30,99,86,51,30.56,30.17,9,2,9,0.04
2014-3-11,66,39,27,47,32,23,99,79,25,30.61,30.55,6,1,6,0.00
2014-3-12,64,40,24,43,33,23,99,79,40,30.56,30.39,8,2,8,0.00
2014-3-13,52,46,34,49,44,33,99,94,85,30.44,30.38,11,3,11,0.00
2014-3-14,54,47,41,48,44,39,99,90,77,30.39,30.01,27,8,27,0.01
2014-3-15,50,48,45,49,46,39,99,92,79,30.17,30.10,29,10,29,0.00
2014-3-16,51,48,45,50,46,41,99,93,84,30.16,30.00,27,9,27,0.01
2014-3-17,51,48,45,48,44,40,99,88,72,30.01,29.87,21,7,21,0.01
2014-3-18,51,47,44,47,43,39,96,87,80,29.88,29.61,22,7,22,0.12
2014-3-19,61,52,47,47,44,38,90,76,45,29.87,29.58,35,12,35,0.00
2014-3-20,50,45,38,46,40,33,95,84,67,29.58,29.24,36,11,36,0.61
2014-3-21,50,42,36,39,35,32,95,77,57,29.41,29.18,30,10,30,0.41
2014-3-22,50,40,33,36,33,30,97,79,55,29.37,29.18,19,5,19,0.08
2014-3-23,51,39,25,36,30,20,96,73,38,29.91,29.36,17,4,17,0.00
2014-3-24,55,39,21,33,27,19,95,67,36,29.91,29.60,20,4,20,0.00
2014-3-25,51,44,39,44,40,32,95,86,72,30.13,29.58,13,3,13,0.04
2014-3-26,54,42,31,41,34,24,99,77,39,30.22,30.00,17,4,17,0.08
2014-3-27,50,42,37,42,37,35,94,83,63,30.15,29.96,17,6,17,0.09
2014-3-28,44,41,39,40,37,34,97,84,68,30.21,30.13,14,6,14,0.02
2014-3-29,48,43,40,46,42,39,99,97,89,30.14,30.03,13,5,13,0.06
2014-3-30,49,44,42,48,44,41,99,98,95,30.04,29.98,12,5,12,0.01
2014-3-31,49,44,42,48,44,41,99,99,98,30.02,29.90,12,4,12,0.00
2014-4-1,51,45,43,50,44,43,99,98,89,29.90,29.83,10,2,10,0.33
2014-4-2,46,43,42,45,43,41,99,99,94,29.84,29.68,12,4,12,0.00
2014-4-3,49,44,42,48,44,42,99,98,94,29.69,29.63,12,5,12,0.08
2014-4-4,56,47,43,50,46,42,99,96,80,29.74,29.67,8,2,8,0.20
2014-4-5,58,50,40,53,48,39,99,93,79,29.74,29.64,17,4,17,0.00
2014-4-6,62,55,47,56,50,41,97,85,64,29.69,29.49,25,8,25,0.01
2014-4-7,52,44,37,48,43,36,99,95,79,29.71,29.52,7,2,7,0.20
2014-4-8,55,46,40,45,41,38,99,83,61,30.07,29.58,17,6,17,0.05
2014-4-9,59,50,45,49,47,44,99,90,65,30.12,30.03,18,6,18,0.12
2014-4-10,56,48,42,47,43,39,98,83,62,30.11,30.03,14,5,14,0.04
2014-4-11,55,46,36,43,40,36,99,80,57,30.15,29.97,14,4,14,0.00
2014-4-12,56,48,44,47,41,36,91,76,52,29.97,29.75,24,9,24,0.01
2014-4-13,51,46,43,45,41,38,95,84,72,30.01,29.90,27,9,27,0.11
2014-4-14,61,48,38,40,37,32,91,68,38,30.37,30.00,17,5,17,0.00
2014-4-15,64,48,33,43,37,32,94,70,41,30.39,30.29,15,4,15,0.00
2014-4-16,58,49,37,46,40,34,94,71,54,30.29,29.98,21,5,21,0.00
2014-4-17,57,49,40,48,40,29,95,72,43,30.11,29.85,21,8,21,0.04
2014-4-18,70,48,29,37,29,22,89,55,21,30.20,30.11,9,2,9,0.00
2014-4-19,67,48,30,42,34,27,97,66,25,30.15,30.07,9,2,11,0.00
2014-4-20,64,48,36,46,40,35,98,77,47,30.12,29.94,14,4,14,0.00
2014-4-21,67,54,44,53,46,40,95,74,45,29.96,29.88,26,5,26,0.00
2014-4-22,56,50,48,51,48,42,99,92,80,29.90,29.77,13,4,13,0.09
2014-4-23,65,54,49,54,50,47,99,86,59,30.01,29.82,16,3,16,0.01
2014-4-24,68,52,44,52,47,42,99,84,54,30.11,30.01,8,2,8,0.05
2014-4-25,52,46,37,50,45,36,99,97,88,30.10,29.71,11,2,11,0.39
2014-4-26,59,51,46,52,48,46,99,90,71,29.72,29.57,15,4,15,0.21
2014-4-27,58,51,46,52,48,46,99,91,71,29.87,29.70,12,3,12,0.11
2014-4-28,56,51,47,56,50,46,99,99,94,29.92,29.85,5,1,6,0.13
2014-4-29,72,56,43,57,49,43,99,80,49,29.92,29.86,8,2,8,0.00
2014-4-30,53,48,44,53,48,43,99,99,96,29.90,29.84,8,2,8,0.25
2014-5-1,46,43,41,46,41,39,99,92,81,30.17,29.85,15,5,15,0.02
2014-5-2,65,48,41,42,38,34,98,73,35,30.41,30.16,10,3,10,0.01
2014-5-3,53,47,41,45,40,36,90,77,58,30.40,30.18,11,2,11,0.00
2014-5-4,63,53,47,56,50,44,99,91,75,30.18,29.95,14,2,14,0.02
2014-5-5,58,54,47,48,46,42,96,75,64,29.95,29.51,15,4,15,0.00
2014-5-6,62,54,49,50,46,42,97,77,50,29.54,29.44,18,5,18,0.00
2014-5-7,58,48,43,48,45,42,99,90,63,29.57,29.44,18,4,18,0.41
2014-5-8,64,52,47,51,48,46,99,87,57,29.60,29.52,11,3,11,0.14
2014-5-9,62,52,46,52,48,44,99,87,64,29.69,29.48,19,4,19,0.05
2014-5-10,62,51,45,56,48,43,99,90,66,29.66,29.23,8,2,8,0.14
2014-5-11,62,51,44,50,46,43,99,83,54,29.62,29.28,17,3,17,0.11
2014-5-12,60,47,43,49,45,42,99,92,65,29.91,29.62,8,2,8,0.09
2014-5-13,67,50,32,50,42,32,99,76,44,30.26,29.91,12,2,12,0.07
2014-5-14,69,52,35,50,44,35,99,76,34,30.49,30.26,11,2,11,0.01
2014-5-15,71,58,50,54,50,45,97,75,46,30.53,30.48,12,3,12,0.01
2014-5-16,73,59,46,58,51,45,99,76,47,30.52,30.23,19,4,19,0.00
2014-5-17,67,58,50,55,48,39,92,72,42,30.25,29.88,20,5,20,0.00
2014-5-18,70,58,52,53,47,41,85,67,47,29.88,29.70,25,6,25,0.00
2014-5-19,76,61,47,60,51,42,86,72,51,29.73,29.64,12,3,12,0.00
2014-5-20,68,57,51,58,54,49,99,88,67,29.77,29.70,11,4,11,0.07
2014-5-21,73,58,45,55,50,42,99,75,43,29.76,29.70,14,3,14,0.04
2014-5-22,54,49,42,48,45,40,97,87,71,29.79,29.62,23,3,23,0.01
2014-5-23,55,46,37,46,42,35,98,85,66,29.89,29.78,14,3,14,0.01
2014-5-24,55,50,48,50,48,44,97,90,81,29.96,29.87,11,4,11,0.06
2014-5-25,65,54,49,55,50,46,99,88,63,30.02,29.91,14,3,14,0.27
2014-5-26,71,57,48,56,50,45,98,79,51,30.08,30.01,14,2,14,0.01
2014-5-27,71,58,48,58,50,43,97,76,50,30.11,30.06,11,2,11,0.04
2014-5-28,66,53,49,57,50,45,97,89,66,30.12,30.06,17,3,17,0.30
2014-5-29,59,53,47,49,47,44,94,82,66,30.25,30.10,12,4,12,0.00
2014-5-30,73,55,45,50,46,43,96,73,43,30.30,30.24,10,2,10,0.00
2014-5-31,75,58,38,54,47,37,96,71,45,30.27,30.17,9,2,9,0.00
2014-6-1,71,58,43,58,51,41,98,80,60,30.20,30.04,14,2,14,0.12
2014-6-2,67,59,53,57,54,50,95,84,65,30.04,29.89,13,3,13,0.01
2014-6-3,71,57,51,58,52,45,97,83,50,29.90,29.75,9,2,9,0.15
2014-6-4,56,51,45,55,50,43,99,95,86,29.75,29.60,11,1,11,0.61
2014-6-5,63,54,50,60,51,44,99,90,74,29.82,29.61,6,2,6,0.20
2014-6-6,78,61,51,57,53,44,99,77,39,29.93,29.82,9,2,9,0.00
2014-6-7,68,57,48,56,51,46,95,81,53,29.93,29.80,13,4,13,0.34
2014-6-8,72,60,48,58,50,42,92,72,55,30.04,29.86,21,4,21,0.01
2014-6-9,70,59,48,60,55,47,97,87,59,30.05,29.90,8,3,10,0.18
2014-6-10,71,60,53,60,53,49,95,78,57,29.98,29.86,17,3,17,0.08
2014-6-11,74,61,51,56,52,48,95,72,46,30.32,29.97,14,3,14,0.00
2014-6-12,73,61,50,59,54,47,93,78,59,30.33,30.27,11,2,11,0.00
2014-6-13,74,64,58,64,59,55,92,84,65,30.29,30.22,10,2,10,0.00
2014-6-14,72,64,59,67,60,56,95,88,72,30.35,30.26,8,2,8,0.08
2014-6-15,65,58,55,59,56,53,99,92,78,30.43,30.34,8,3,8,0.04
2014-6-16,78,62,48,58,53,44,98,73,50,30.44,30.38,13,3,13,0.00
2014-6-17,82,65,56,66,57,52,92,78,49,30.42,30.35,10,2,10,0.02
2014-6-18,86,69,59,68,62,56,93,78,52,30.38,30.21,11,3,11,0.00
2014-6-19,78,65,56,57,52,49,92,66,41,30.26,30.19,12,3,12,0.00
2014-6-20,75,62,46,55,50,43,91,69,46,30.20,30.09,10,2,10,0.00
2014-6-21,70,61,54,56,52,49,85,73,56,30.13,30.09,11,2,11,0.00
2014-6-22,76,63,52,57,52,48,90,70,44,30.21,30.13,8,2,8,0.00
2014-6-23,68,60,50,59,54,47,92,82,68,30.21,30.15,10,2,10,0.00
2014-6-24,66,59,54,59,53,50,92,83,65,30.17,30.12,8,2,8,0.01
2014-6-25,69,58,48,57,51,45,92,79,56,30.14,30.03,9,2,9,0.05
2014-6-26,70,59,50,54,49,45,91,71,53,30.05,29.97,11,3,11,0.00
2014-6-27,63,52,41,50,45,38,93,79,56,30.00,29.93,16,3,16,0.00
2014-6-28,65,55,46,51,46,42,90,74,53,29.95,29.88,14,3,14,0.02
2014-6-29,67,55,41,50,45,39,92,71,48,30.02,29.94,10,2,10,0.00
2014-6-30,79,60,45,53,48,42,90,67,39,30.08,29.99,9,2,9,0.00
2014-7-1,82,65,49,56,52,46,92,66,39,30.15,30.08,9,2,9,0.00
2014-7-2,68,59,47,58,52,44,94,77,53,30.14,29.92,20,4,20,0.05
2014-7-3,72,61,50,57,52,47,93,74,52,29.95,29.72,15,4,15,0.01
2014-7-4,67,61,51,60,57,48,94,86,73,29.72,29.39,29,5,29,0.08
2014-7-5,72,62,47,54,48,42,94,65,39,29.59,29.43,11,3,11,0.02
2014-7-6,73,56,47,58,51,45,93,83,53,29.71,29.58,11,2,11,0.24
2014-7-7,70,56,44,56,47,35,92,72,45,29.99,29.71,11,2,11,0.01
2014-7-8,71,56,47,61,51,44,98,85,64,30.13,29.97,7,1,7,0.30
2014-7-9,79,63,47,60,50,42,94,67,43,30.17,30.11,11,2,11,0.00
2014-7-10,84,64,43,58,50,41,93,67,36,30.16,30.05,10,2,10,0.00
2014-7-11,88,65,46,62,55,44,95,72,41,30.09,30.00,9,2,9,0.00
2014-7-12,72,61,47,62,56,44,98,84,63,30.02,29.70,14,2,14,0.11
2014-7-13,73,62,50,63,54,47,94,75,55,29.83,29.69,10,3,10,0.06
2014-7-14,69,57,44,63,53,42,99,86,64,29.83,29.66,19,4,19,0.01
2014-7-15,72,60,52,55,52,49,96,75,50,30.07,29.78,14,3,14,0.00
2014-7-16,77,60,50,65,56,47,99,86,59,30.06,29.91,20,4,20,0.17
2014-7-17,86,65,51,61,56,49,94,75,41,30.14,30.04,9,2,9,0.01
2014-7-18,75,64,57,61,58,55,94,81,58,30.12,29.91,20,5,20,0.00
2014-7-19,69,64,60,68,63,57,99,96,88,29.93,29.71,9,3,9,0.14
2014-7-20,78,67,57,66,61,54,99,83,65,29.97,29.73,8,2,8,0.00
2014-7-21,83,65,50,62,56,49,95,76,46,30.18,29.97,8,2,8,0.00
2014-7-22,88,68,49,66,57,39,94,71,39,30.28,30.17,10,2,10,0.00
2014-7-23,86,68,51,67,61,50,98,79,53,30.28,30.17,10,3,10,0.00
2014-7-24,89,70,53,66,58,48,96,70,43,30.21,30.11,13,2,13,0.00
2014-7-25,92,69,49,65,57,47,95,68,36,30.16,30.04,7,1,7,0.00
2014-7-26,86,67,51,65,58,49,95,76,26,30.08,29.94,27,2,27,0.22
2014-7-27,72,60,53,64,56,50,99,87,63,29.98,29.91,11,2,14,0.15
2014-7-28,84,65,51,62,54,42,95,70,44,30.04,29.95,8,2,8,0.00
2014-7-29,69,61,55,61,56,52,93,83,63,30.03,29.92,14,3,14,0.00
2014-7-30,70,61,56,61,56,53,95,85,67,29.93,29.83,18,4,18,0.02
2014-7-31,72,60,54,62,56,51,96,87,59,29.85,29.71,11,2,12,0.34
2014-8-1,72,59,51,61,47,3,99,70,10,29.72,29.62,8,1,8,0.02
2014-8-2,66,58,49,65,55,38,99,91,52,29.66,29.48,11,2,11,0.58
2014-8-3,69,59,51,62,48,-2,99,72,10,29.67,29.48,17,4,17,0.15
2014-8-4,73,60,47,56,52,45,98,78,47,30.01,29.67,17,4,17,0.01
2014-8-5,75,59,41,60,51,38,95,77,49,30.02,29.85,11,2,11,0.00
2014-8-6,77,63,56,69,57,37,99,84,41,29.85,29.70,13,2,13,0.45
2014-8-7,75,60,50,57,52,48,97,77,46,29.95,29.80,11,3,13,0.00
2014-8-8,74,57,47,62,52,44,97,84,57,29.94,29.62,12,2,12,0.22
2014-8-9,72,59,50,60,37,-3,95,53,10,29.62,29.53,21,3,21,0.01
2014-8-10,61,56,51,59,54,49,98,92,88,29.60,29.21,14,2,14,0.46
2014-8-11,62,55,52,58,54,50,99,95,79,29.44,29.21,26,8,26,0.51
2014-8-12,58,55,53,56,54,52,99,97,90,29.44,29.38,20,6,20,0.30
2014-8-13,71,60,54,59,56,53,99,86,63,29.66,29.40,14,4,14,0.01
2014-8-14,74,60,54,60,54,51,94,83,57,29.89,29.66,13,2,13,0.00
2014-8-15,70,58,51,58,48,21,91,71,25,30.06,29.89,10,2,10,0.22
2014-8-16,62,55,51,57,53,48,98,91,84,30.05,29.68,21,5,21,0.07
2014-8-17,60,55,52,54,52,50,98,89,74,29.68,29.44,24,6,24,0.02
2014-8-18,61,54,48,56,48,44,97,80,57,29.80,29.59,13,3,13,0.08
2014-8-19,69,53,41,49,45,38,94,76,41,29.97,29.79,11,2,11,0.04
2014-8-20,67,52,40,51,43,25,90,72,35,29.99,29.92,12,2,12,0.01
2014-8-21,66,52,9,57,49,6,97,89,71,29.92,29.66,102,3,102,0.53
2014-8-22,69,51,42,52,37,-7,94,66,10,29.87,29.73,14,2,14,0.01
2014-8-23,66,51,42,53,45,34,94,79,58,30.00,29.85,9,2,9,0.05
2014-8-24,68,52,39,52,43,36,95,74,42,30.02,29.94,11,2,11,0.00
2014-8-25,63,52,40,55,48,38,95,87,71,29.94,29.71,16,5,16,0.00
2014-8-26,71,56,42,52,48,39,94,77,48,30.02,29.75,14,4,14,0.00
2014-8-27,70,53,37,53,46,29,92,77,38,30.04,29.78,11,3,16,0.00
2014-8-28,73,61,55,62,54,47,96,80,56,29.79,29.60,17,5,17,0.09
2014-8-29,66,58,55,57,55,52,96,90,71,29.61,29.50,17,5,17,0.43
2014-8-30,71,58,54,56,53,51,96,85,66,29.92,29.60,17,5,17,0.04
2014-8-31,78,61,53,58,54,51,94,78,47,29.99,29.91,12,3,12,0.00
2014-9-1,68,59,54,57,53,49,93,80,56,30.19,29.96,10,2,10,0.02
2014-9-2,67,58,52,56,53,50,94,83,66,30.26,30.19,5,1,5,0.00
2014-9-3,69,61,54,59,55,51,94,82,63,30.22,30.16,8,2,8,0.00
2014-9-4,76,62,53,65,58,50,96,85,68,30.17,30.06,9,2,9,0.00
2014-9-5,69,57,46,63,47,-2,99,77,10,30.07,29.97,6,1,8,0.04
2014-9-6,70,57,49,57,52,47,98,83,61,30.00,29.93,8,1,8,0.00
2014-9-7,71,52,39,54,45,11,95,77,19,30.03,29.96,10,2,10,0.00
2014-9-8,72,52,36,55,44,28,94,78,44,30.16,30.03,7,1,7,0.00
2014-9-9,70,55,44,57,49,41,93,80,56,30.18,30.13,8,1,8,0.00
2014-9-10,78,57,41,59,48,2,93,73,10,30.18,30.12,8,2,8,0.00
2014-9-11,81,59,43,63,52,28,94,78,32,30.23,30.16,8,1,8,0.00
2014-9-12,79,58,46,63,45,-3,95,68,10,30.32,30.22,5,1,5,0.00
2014-9-13,78,59,45,63,49,17,93,72,22,30.38,30.31,5,1,5,0.00
2014-9-14,64,55,47,58,52,45,96,89,73,30.38,30.25,9,2,9,0.00
2014-9-15,61,57,55,59,56,50,98,94,81,30.26,30.03,9,2,9,0.00
2014-9-16,71,59,54,62,43,-1,99,66,10,30.04,29.99,8,2,8,0.00
2014-9-17,72,59,54,62,56,52,95,90,66,30.03,29.94,8,2,8,0.00
2014-9-18,65,60,57,65,56,31,99,86,34,29.95,29.89,7,2,7,0.00
2014-9-19,63,58,56,61,52,41,99,82,53,29.97,29.89,8,2,8,0.00
2014-9-20,72,56,42,60,41,0,99,67,10,30.22,29.96,6,1,6,0.04
2014-9-21,73,50,37,56,29,-15,93,54,10,30.32,30.22,4,1,6,0.00
2014-9-22,72,50,37,57,38,-7,94,68,10,30.31,30.11,11,1,11,0.00
2014-9-23,63,55,49,56,50,46,97,83,67,30.11,29.80,9,2,9,0.04
2014-9-24,68,54,49,54,48,43,98,81,53,29.95,29.76,10,2,10,0.06
2014-9-25,68,59,50,62,56,46,97,89,82,29.94,29.83,16,5,16,0.05
2014-9-26,66,58,50,60,50,43,98,77,51,30.19,29.83,21,6,21,0.00
2014-9-27,68,55,40,56,48,38,95,78,53,30.20,30.11,17,3,17,0.00
2014-9-28,65,60,48,58,55,45,94,86,77,30.12,30.06,11,3,14,0.00
2014-9-29,74,57,45,65,47,1,95,74,10,30.11,30.04,6,1,6,0.00
2014-9-30,75,59,50,60,49,0,94,71,10,30.07,29.96,14,3,14,0.00